Banks, ID

1:43 PM MST on December 07, 2016 (GMT -0700)
Ontario Municipal | | Change Station
Active Advisory: Winter Weather Advisory

Elev 2192 ft 44.02 °N, 117.01 °W | Updated 10 minutes ago

Overcast
Overcast
25 °F
Feels Like 18 °F
N
6
Wind Variable Wind from NNE

Today
High -- | Low -- °F
--% Chance of Precip.
Yesterday
High -- | Low -- °F
Precip. -- in
Pressure 30.42 in
Visibility 10.0 miles
Clouds Overcast 1000 ft
Windchill 18 °F
Dew Point 18 °F
Humidity 75%
Rainfall 0.00 in
Snow Depth Not available.
8:06 AM 5:06 PM
First Quarter, 55% visible
SPECI KONO 072033Z AUTO 02005KT 10SM OVC010 M04/M08 A3042 RMK AO2 T10391078
Pressure 30.42 in
Visibility 10.0 miles
Clouds Overcast 1000 ft
Windchill 18 °F
Dew Point 18 °F
Humidity 75%
Rainfall 0.00 in
Snow Depth Not available.
8:06 AM 5:06 PM
First Quarter, 55% visible
SPECI KONO 072033Z AUTO 02005KT 10SM OVC010 M04/M08 A3042 RMK AO2 T10391078

10-Day Weather Forecast

Almanac

Astronomy

Dec. 07, 2016 Rise Set
Actual Time
Civil Twilight
Nautical Twilight
Astronomical Twilight
Moon
Length of Visible Light
Length of Day
Tomorrow will be .
, % of the Moon is Illuminated

Today's Extremes

State Highs State Lows

Community

WunderPhotos

Upload Photos

1,956,170 photos uploaded!

WunderBlog® & News

Nearby

Air Quality

  Air Quality AQ Index Pollutant
Not available.

Snow Depth

Station Depth Elevation

Earthquake Activity

City Distance Mag. Time & Date
Minimum magnitude displayed is 2.5.

Coastal Water Temperatures

Place Temperature

Stations

Nearby Weather Stations

Station Location Temp. Windchill Dew Point Humidity Wind Precip. Elev Updated Type
                   

Watches & Warnings

Winter Weather Advisory
Issued: 12:35 PM PST Dec. 7, 2016 – National Weather Service

... Winter Weather Advisory remains in effect from 11 am MST
/10 am PST/ Thursday to 5 am MST /4 am PST/ Saturday...

* snow amounts... 5 to 10 inches except up to 15 to 20 inches above
7000 feet...

* snow levels... valley floors.

* Timing... snow will begin Thursday morning and continue through
Friday night.

* Impacts... snow accumulation on roads will make driving
difficult and treacherous... especially during the Thursday
afternoon commute.

Precautionary/preparedness actions...

A Winter Weather Advisory for snow means that periods of snow
will primarily cause travel difficulties. Be prepared for snow
covered roads and limited visibilities... and use caution while
driving. Travel in the mountains and backcountry is not
recommended without proper equipment and adequate provisions.
Remember that cell phone communication is limited by terrain.